sensor_id;sensor_type;location;lat;lon;timestamp;temperature;humidity
7876;DHT22;69649;53.712;9.680;2023-06-19T00:02:09;20.50;57.50
7876;DHT22;69649;53.712;9.680;2023-06-19T00:04:35;20.50;57.40
7876;DHT22;69649;53.712;9.680;2023-06-19T00:07:01;20.40;57.60
7876;DHT22;69649;53.712;9.680;2023-06-19T00:09:27;20.50;57.90
7876;DHT22;69649;53.712;9.680;2023-06-19T00:11:52;20.50;57.70
7876;DHT22;69649;53.712;9.680;2023-06-19T00:14:19;20.30;57.60
7876;DHT22;69649;53.712;9.680;2023-06-19T00:16:44;20.30;57.70
7876;DHT22;69649;53.712;9.680;2023-06-19T00:19:10;20.30;58.30
7876;DHT22;69649;53.712;9.680;2023-06-19T00:21:38;20.30;58.30
7876;DHT22;69649;53.712;9.680;2023-06-19T00:24:04;20.30;58.20
7876;DHT22;69649;53.712;9.680;2023-06-19T00:26:31;20.30;57.90
7876;DHT22;69649;53.712;9.680;2023-06-19T00:28:57;20.30;58.30
7876;DHT22;69649;53.712;9.680;2023-06-19T00:31:23;20.30;58.50
7876;DHT22;69649;53.712;9.680;2023-06-19T00:33:49;20.20;59.00
7876;DHT22;69649;53.712;9.680;2023-06-19T00:36:16;20.20;59.20
7876;DHT22;69649;53.712;9.680;2023-06-19T00:38:44;20.20;59.40
7876;DHT22;69649;53.712;9.680;2023-06-19T00:41:10;20.10;59.00
7876;DHT22;69649;53.712;9.680;2023-06-19T00:43:36;20.00;59.00
7876;DHT22;69649;53.712;9.680;2023-06-19T00:46:02;20.10;59.40
7876;DHT22;69649;53.712;9.680;2023-06-19T00:48:30;20.10;59.20
7876;DHT22;69649;53.712;9.680;2023-06-19T00:50:56;20.10;59.40
7876;DHT22;69649;53.712;9.680;2023-06-19T00:53:23;20.10;59.20
7876;DHT22;69649;53.712;9.680;2023-06-19T00:55:51;20.10;59.20
7876;DHT22;69649;53.712;9.680;2023-06-19T00:58:18;20.00;58.90
7876;DHT22;69649;53.712;9.680;2023-06-19T01:00:44;20.00;58.70
7876;DHT22;69649;53.712;9.680;2023-06-19T01:03:10;19.90;58.80
7876;DHT22;69649;53.712;9.680;2023-06-19T01:05:36;20.00;58.90
7876;DHT22;69649;53.712;9.680;2023-06-19T01:11:05;19.70;58.70
7876;DHT22;69649;53.712;9.680;2023-06-19T01:16:06;19.80;59.00
7876;DHT22;69649;53.712;9.680;2023-06-19T01:18:32;19.80;58.90
7876;DHT22;69649;53.712;9.680;2023-06-19T01:21:10;19.80;58.80
7876;DHT22;69649;53.712;9.680;2023-06-19T01:23:37;19.80;58.80
7876;DHT22;69649;53.712;9.680;2023-06-19T01:26:02;19.90;59.00
7876;DHT22;69649;53.712;9.680;2023-06-19T01:28:28;19.90;58.60
7876;DHT22;69649;53.712;9.680;2023-06-19T01:30:55;19.80;58.70
7876;DHT22;69649;53.712;9.680;2023-06-19T01:33:27;19.90;58.60
7876;DHT22;69649;53.712;9.680;2023-06-19T01:35:55;19.90;58.70
7876;DHT22;69649;53.712;9.680;2023-06-19T01:38:23;19.90;58.50
7876;DHT22;69649;53.712;9.680;2023-06-19T01:40:56;19.80;58.20
7876;DHT22;69649;53.712;9.680;2023-06-19T01:43:23;19.80;58.40
7876;DHT22;69649;53.712;9.680;2023-06-19T01:45:49;19.70;58.40
7876;DHT22;69649;53.712;9.680;2023-06-19T01:48:15;19.80;58.30
7876;DHT22;69649;53.712;9.680;2023-06-19T01:50:46;19.80;58.40
7876;DHT22;69649;53.712;9.680;2023-06-19T01:53:13;19.80;58.30
7876;DHT22;69649;53.712;9.680;2023-06-19T01:55:39;19.70;58.20
7876;DHT22;69649;53.712;9.680;2023-06-19T01:58:08;19.80;58.20
7876;DHT22;69649;53.712;9.680;2023-06-19T02:00:33;19.70;58.10
7876;DHT22;69649;53.712;9.680;2023-06-19T02:03:04;19.80;58.20
7876;DHT22;69649;53.712;9.680;2023-06-19T02:05:30;19.70;58.20
7876;DHT22;69649;53.712;9.680;2023-06-19T02:07:57;19.80;58.30
7876;DHT22;69649;53.712;9.680;2023-06-19T02:10:23;19.90;58.40
7876;DHT22;69649;53.712;9.680;2023-06-19T02:12:49;19.90;58.10
7876;DHT22;69649;53.712;9.680;2023-06-19T02:15:15;19.90;57.70
7876;DHT22;69649;53.712;9.680;2023-06-19T02:17:40;19.90;58.00
7876;DHT22;69649;53.712;9.680;2023-06-19T02:20:09;19.90;58.00
7876;DHT22;69649;53.712;9.680;2023-06-19T02:22:39;19.90;58.10
7876;DHT22;69649;53.712;9.680;2023-06-19T02:25:06;19.90;57.80
7876;DHT22;69649;53.712;9.680;2023-06-19T02:27:32;19.90;58.10
7876;DHT22;69649;53.712;9.680;2023-06-19T02:29:58;20.00;58.00
7876;DHT22;69649;53.712;9.680;2023-06-19T02:32:24;19.90;58.10
7876;DHT22;69649;53.712;9.680;2023-06-19T02:34:50;19.90;58.10
7876;DHT22;69649;53.712;9.680;2023-06-19T02:37:16;20.00;58.10
7876;DHT22;69649;53.712;9.680;2023-06-19T02:39:41;20.00;58.10
7876;DHT22;69649;53.712;9.680;2023-06-19T02:42:07;20.00;58.00
7876;DHT22;69649;53.712;9.680;2023-06-19T02:44:33;20.00;58.20
7876;DHT22;69649;53.712;9.680;2023-06-19T02:46:59;19.90;58.30
7876;DHT22;69649;53.712;9.680;2023-06-19T02:49:25;19.90;58.20
7876;DHT22;69649;53.712;9.680;2023-06-19T02:51:50;19.90;58.30
7876;DHT22;69649;53.712;9.680;2023-06-19T02:54:16;19.90;58.30
7876;DHT22;69649;53.712;9.680;2023-06-19T02:56:42;19.90;58.50
7876;DHT22;69649;53.712;9.680;2023-06-19T02:59:08;19.70;58.60
7876;DHT22;69649;53.712;9.680;2023-06-19T03:01:33;19.70;58.60
7876;DHT22;69649;53.712;9.680;2023-06-19T03:03:59;19.80;58.60
7876;DHT22;69649;53.712;9.680;2023-06-19T03:06:25;19.90;58.60
7876;DHT22;69649;53.712;9.680;2023-06-19T03:08:51;19.90;58.60
7876;DHT22;69649;53.712;9.680;2023-06-19T03:11:17;20.00;58.40
7876;DHT22;69649;53.712;9.680;2023-06-19T03:13:45;20.00;58.60
7876;DHT22;69649;53.712;9.680;2023-06-19T03:16:12;19.90;58.40
7876;DHT22;69649;53.712;9.680;2023-06-19T03:18:38;19.90;58.40
7876;DHT22;69649;53.712;9.680;2023-06-19T03:21:04;19.90;58.50
7876;DHT22;69649;53.712;9.680;2023-06-19T03:23:29;19.80;58.50
7876;DHT22;69649;53.712;9.680;2023-06-19T03:25:55;19.90;58.60
7876;DHT22;69649;53.712;9.680;2023-06-19T03:28:22;19.80;58.70
7876;DHT22;69649;53.712;9.680;2023-06-19T03:30:49;19.90;58.60
7876;DHT22;69649;53.712;9.680;2023-06-19T03:33:15;19.80;58.60
7876;DHT22;69649;53.712;9.680;2023-06-19T03:35:41;19.80;58.60
7876;DHT22;69649;53.712;9.680;2023-06-19T03:38:07;19.80;58.70
7876;DHT22;69649;53.712;9.680;2023-06-19T03:40:32;19.90;58.50
7876;DHT22;69649;53.712;9.680;2023-06-19T03:42:58;19.90;58.60
7876;DHT22;69649;53.712;9.680;2023-06-19T03:45:24;19.80;58.60
7876;DHT22;69649;53.712;9.680;2023-06-19T03:47:49;19.70;58.70
7876;DHT22;69649;53.712;9.680;2023-06-19T03:50:15;19.70;58.90
7876;DHT22;69649;53.712;9.680;2023-06-19T03:52:41;19.70;58.90
7876;DHT22;69649;53.712;9.680;2023-06-19T03:55:07;19.70;59.00
7876;DHT22;69649;53.712;9.680;2023-06-19T03:57:33;19.60;59.00
7876;DHT22;69649;53.712;9.680;2023-06-19T03:59:58;19.60;59.10
7876;DHT22;69649;53.712;9.680;2023-06-19T04:02:24;19.70;58.80
7876;DHT22;69649;53.712;9.680;2023-06-19T04:04:51;19.70;59.00
7876;DHT22;69649;53.712;9.680;2023-06-19T04:07:16;19.70;59.00
7876;DHT22;69649;53.712;9.680;2023-06-19T04:09:42;19.70;59.10
7876;DHT22;69649;53.712;9.680;2023-06-19T04:12:09;19.70;59.10
7876;DHT22;69649;53.712;9.680;2023-06-19T04:14:34;19.70;59.00
7876;DHT22;69649;53.712;9.680;2023-06-19T04:17:00;19.70;59.00
7876;DHT22;69649;53.712;9.680;2023-06-19T04:19:26;19.70;59.20
7876;DHT22;69649;53.712;9.680;2023-06-19T04:21:52;19.70;59.30
7876;DHT22;69649;53.712;9.680;2023-06-19T04:24:20;19.50;59.50
7876;DHT22;69649;53.712;9.680;2023-06-19T04:26:45;19.50;59.80
7876;DHT22;69649;53.712;9.680;2023-06-19T04:29:11;19.50;59.70
7876;DHT22;69649;53.712;9.680;2023-06-19T04:31:39;19.60;59.90
7876;DHT22;69649;53.712;9.680;2023-06-19T04:34:06;19.50;59.60
7876;DHT22;69649;53.712;9.680;2023-06-19T04:36:32;19.50;59.70
7876;DHT22;69649;53.712;9.680;2023-06-19T04:38:57;19.50;59.80
7876;DHT22;69649;53.712;9.680;2023-06-19T04:41:25;19.50;59.70
7876;DHT22;69649;53.712;9.680;2023-06-19T04:43:51;19.50;60.00
7876;DHT22;69649;53.712;9.680;2023-06-19T04:46:16;19.40;60.20
7876;DHT22;69649;53.712;9.680;2023-06-19T04:48:44;19.50;60.50
7876;DHT22;69649;53.712;9.680;2023-06-19T04:51:11;19.50;60.30
7876;DHT22;69649;53.712;9.680;2023-06-19T04:53:36;19.50;60.10
7876;DHT22;69649;53.712;9.680;2023-06-19T04:56:02;19.50;60.20
7876;DHT22;69649;53.712;9.680;2023-06-19T04:58:28;19.70;59.90
7876;DHT22;69649;53.712;9.680;2023-06-19T05:00:54;19.70;59.70
7876;DHT22;69649;53.712;9.680;2023-06-19T05:03:20;19.70;59.80
7876;DHT22;69649;53.712;9.680;2023-06-19T05:05:47;19.70;59.80
7876;DHT22;69649;53.712;9.680;2023-06-19T05:08:13;19.70;59.70
7876;DHT22;69649;53.712;9.680;2023-06-19T05:10:39;19.70;59.70
7876;DHT22;69649;53.712;9.680;2023-06-19T05:13:05;19.70;59.60
7876;DHT22;69649;53.712;9.680;2023-06-19T05:15:30;19.60;59.60
7876;DHT22;69649;53.712;9.680;2023-06-19T05:17:56;19.70;59.40
7876;DHT22;69649;53.712;9.680;2023-06-19T05:20:22;19.70;59.40
7876;DHT22;69649;53.712;9.680;2023-06-19T05:22:48;19.70;59.30
7876;DHT22;69649;53.712;9.680;2023-06-19T05:25:14;19.70;59.40
7876;DHT22;69649;53.712;9.680;2023-06-19T05:27:40;19.70;59.20
7876;DHT22;69649;53.712;9.680;2023-06-19T05:30:06;19.80;59.10
7876;DHT22;69649;53.712;9.680;2023-06-19T05:32:32;19.90;59.00
7876;DHT22;69649;53.712;9.680;2023-06-19T05:34:58;19.80;59.00
7876;DHT22;69649;53.712;9.680;2023-06-19T05:37:24;19.80;59.00
7876;DHT22;69649;53.712;9.680;2023-06-19T05:39:50;19.80;59.10
7876;DHT22;69649;53.712;9.680;2023-06-19T05:42:15;19.70;59.30
7876;DHT22;69649;53.712;9.680;2023-06-19T05:44:41;19.80;59.20
7876;DHT22;69649;53.712;9.680;2023-06-19T05:47:07;19.90;59.10
7876;DHT22;69649;53.712;9.680;2023-06-19T05:49:33;19.90;59.00
7876;DHT22;69649;53.712;9.680;2023-06-19T05:51:58;19.90;59.10
7876;DHT22;69649;53.712;9.680;2023-06-19T05:54:25;20.00;59.10
7876;DHT22;69649;53.712;9.680;2023-06-19T05:56:52;20.00;59.40
7876;DHT22;69649;53.712;9.680;2023-06-19T05:59:18;20.00;59.80
7876;DHT22;69649;53.712;9.680;2023-06-19T06:01:43;20.00;59.70
7876;DHT22;69649;53.712;9.680;2023-06-19T06:04:09;20.00;59.70
7876;DHT22;69649;53.712;9.680;2023-06-19T06:06:35;20.00;61.30
7876;DHT22;69649;53.712;9.680;2023-06-19T06:09:01;20.00;60.20
7876;DHT22;69649;53.712;9.680;2023-06-19T06:11:27;20.10;60.70
7876;DHT22;69649;53.712;9.680;2023-06-19T06:13:53;20.20;61.60
7876;DHT22;69649;53.712;9.680;2023-06-19T06:16:18;20.20;62.10
7876;DHT22;69649;53.712;9.680;2023-06-19T06:18:45;20.30;62.00
7876;DHT22;69649;53.712;9.680;2023-06-19T06:21:11;20.30;62.50
7876;DHT22;69649;53.712;9.680;2023-06-19T06:23:40;20.30;63.30
7876;DHT22;69649;53.712;9.680;2023-06-19T06:26:06;20.30;63.20
7876;DHT22;69649;53.712;9.680;2023-06-19T06:28:32;20.30;64.60
7876;DHT22;69649;53.712;9.680;2023-06-19T06:30:58;20.30;64.30
7876;DHT22;69649;53.712;9.680;2023-06-19T06:33:23;20.20;62.80
7876;DHT22;69649;53.712;9.680;2023-06-19T06:35:50;20.10;63.20
7876;DHT22;69649;53.712;9.680;2023-06-19T06:38:17;20.10;63.30
7876;DHT22;69649;53.712;9.680;2023-06-19T06:40:42;20.10;63.40
7876;DHT22;69649;53.712;9.680;2023-06-19T06:43:08;20.30;64.30
7876;DHT22;69649;53.712;9.680;2023-06-19T06:45:34;20.30;63.50
7876;DHT22;69649;53.712;9.680;2023-06-19T06:48:02;20.30;64.00
7876;DHT22;69649;53.712;9.680;2023-06-19T06:50:28;20.30;64.00
7876;DHT22;69649;53.712;9.680;2023-06-19T06:52:53;20.30;63.70
7876;DHT22;69649;53.712;9.680;2023-06-19T06:55:19;20.30;64.20
7876;DHT22;69649;53.712;9.680;2023-06-19T06:57:45;20.30;64.00
7876;DHT22;69649;53.712;9.680;2023-06-19T07:00:12;20.30;63.30
7876;DHT22;69649;53.712;9.680;2023-06-19T07:02:38;20.40;63.10
7876;DHT22;69649;53.712;9.680;2023-06-19T07:05:07;20.50;63.40
7876;DHT22;69649;53.712;9.680;2023-06-19T07:07:32;20.50;63.20
7876;DHT22;69649;53.712;9.680;2023-06-19T07:09:58;20.60;63.20
7876;DHT22;69649;53.712;9.680;2023-06-19T07:12:24;20.70;63.50
7876;DHT22;69649;53.712;9.680;2023-06-19T07:14:55;20.70;64.30
7876;DHT22;69649;53.712;9.680;2023-06-19T07:17:21;20.70;64.30
7876;DHT22;69649;53.712;9.680;2023-06-19T07:19:46;20.70;63.90
7876;DHT22;69649;53.712;9.680;2023-06-19T07:22:13;20.50;64.10
7876;DHT22;69649;53.712;9.680;2023-06-19T07:24:42;20.50;64.50
7876;DHT22;69649;53.712;9.680;2023-06-19T07:27:08;20.50;64.60
7876;DHT22;69649;53.712;9.680;2023-06-19T07:29:34;20.60;64.70
7876;DHT22;69649;53.712;9.680;2023-06-19T07:32:00;20.60;64.80
7876;DHT22;69649;53.712;9.680;2023-06-19T07:34:27;20.70;64.60
7876;DHT22;69649;53.712;9.680;2023-06-19T07:36:53;20.80;64.10
7876;DHT22;69649;53.712;9.680;2023-06-19T07:39:19;20.90;64.50
7876;DHT22;69649;53.712;9.680;2023-06-19T07:41:45;21.10;65.10
7876;DHT22;69649;53.712;9.680;2023-06-19T07:44:11;21.20;64.60
7876;DHT22;69649;53.712;9.680;2023-06-19T07:46:38;21.30;63.70
7876;DHT22;69649;53.712;9.680;2023-06-19T07:49:03;21.40;63.70
7876;DHT22;69649;53.712;9.680;2023-06-19T07:51:30;21.50;63.50
7876;DHT22;69649;53.712;9.680;2023-06-19T07:53:56;21.50;62.70
7876;DHT22;69649;53.712;9.680;2023-06-19T07:56:22;21.50;62.70
7876;DHT22;69649;53.712;9.680;2023-06-19T07:58:48;21.50;62.70
7876;DHT22;69649;53.712;9.680;2023-06-19T08:01:13;21.70;62.50
7876;DHT22;69649;53.712;9.680;2023-06-19T08:03:39;21.70;62.40
7876;DHT22;69649;53.712;9.680;2023-06-19T08:06:05;21.80;61.60
7876;DHT22;69649;53.712;9.680;2023-06-19T08:08:31;21.70;61.80
7876;DHT22;69649;53.712;9.680;2023-06-19T08:10:57;21.90;61.70
7876;DHT22;69649;53.712;9.680;2023-06-19T08:13:22;21.90;60.80
7876;DHT22;69649;53.712;9.680;2023-06-19T08:15:48;21.90;61.20
7876;DHT22;69649;53.712;9.680;2023-06-19T08:18:14;22.10;60.80
7876;DHT22;69649;53.712;9.680;2023-06-19T08:20:40;22.40;59.30
7876;DHT22;69649;53.712;9.680;2023-06-19T08:23:06;22.50;59.30
7876;DHT22;69649;53.712;9.680;2023-06-19T08:25:32;22.70;58.80
7876;DHT22;69649;53.712;9.680;2023-06-19T08:27:58;23.00;58.30
7876;DHT22;69649;53.712;9.680;2023-06-19T08:30:23;23.20;58.50
7876;DHT22;69649;53.712;9.680;2023-06-19T08:32:49;23.30;57.40
7876;DHT22;69649;53.712;9.680;2023-06-19T08:35:15;23.50;55.80
7876;DHT22;69649;53.712;9.680;2023-06-19T08:37:41;23.60;55.60
7876;DHT22;69649;53.712;9.680;2023-06-19T08:40:09;24.00;56.00
7876;DHT22;69649;53.712;9.680;2023-06-19T08:42:36;24.20;54.20
7876;DHT22;69649;53.712;9.680;2023-06-19T08:45:02;24.50;54.60
7876;DHT22;69649;53.712;9.680;2023-06-19T08:47:32;24.80;54.10
7876;DHT22;69649;53.712;9.680;2023-06-19T08:49:58;24.80;53.80
7876;DHT22;69649;53.712;9.680;2023-06-19T08:52:24;24.80;54.00
7876;DHT22;69649;53.712;9.680;2023-06-19T08:54:50;24.80;53.90
7876;DHT22;69649;53.712;9.680;2023-06-19T08:57:16;25.00;53.30
7876;DHT22;69649;53.712;9.680;2023-06-19T08:59:48;25.20;52.50
7876;DHT22;69649;53.712;9.680;2023-06-19T09:02:15;25.40;52.50
7876;DHT22;69649;53.712;9.680;2023-06-19T09:04:41;25.60;53.40
7876;DHT22;69649;53.712;9.680;2023-06-19T09:07:08;25.60;52.70
7876;DHT22;69649;53.712;9.680;2023-06-19T09:09:34;25.80;52.40
7876;DHT22;69649;53.712;9.680;2023-06-19T09:12:08;25.80;51.60
7876;DHT22;69649;53.712;9.680;2023-06-19T09:17:26;26.10;51.10
7876;DHT22;69649;53.712;9.680;2023-06-19T09:19:54;26.50;50.80
7876;DHT22;69649;53.712;9.680;2023-06-19T09:22:23;26.60;50.50
7876;DHT22;69649;53.712;9.680;2023-06-19T09:24:51;26.50;50.10
7876;DHT22;69649;53.712;9.680;2023-06-19T09:27:19;26.40;50.90
7876;DHT22;69649;53.712;9.680;2023-06-19T09:29:47;26.50;50.80
7876;DHT22;69649;53.712;9.680;2023-06-19T09:32:23;26.60;50.80
7876;DHT22;69649;53.712;9.680;2023-06-19T09:34:51;26.70;49.70
7876;DHT22;69649;53.712;9.680;2023-06-19T09:37:28;26.60;50.30
7876;DHT22;69649;53.712;9.680;2023-06-19T09:40:00;26.60;49.60
7876;DHT22;69649;53.712;9.680;2023-06-19T09:42:32;26.50;50.30
7876;DHT22;69649;53.712;9.680;2023-06-19T09:45:01;26.70;50.40
7876;DHT22;69649;53.712;9.680;2023-06-19T09:47:35;27.00;50.20
7876;DHT22;69649;53.712;9.680;2023-06-19T09:50:01;27.20;48.60
7876;DHT22;69649;53.712;9.680;2023-06-19T09:52:27;27.40;49.90
7876;DHT22;69649;53.712;9.680;2023-06-19T09:54:54;27.70;47.90
7876;DHT22;69649;53.712;9.680;2023-06-19T09:57:21;27.90;48.50
7876;DHT22;69649;53.712;9.680;2023-06-19T09:59:49;28.10;48.20
7876;DHT22;69649;53.712;9.680;2023-06-19T10:02:16;28.00;48.90
7876;DHT22;69649;53.712;9.680;2023-06-19T10:04:52;28.10;48.20
7876;DHT22;69649;53.712;9.680;2023-06-19T10:07:19;27.90;48.20
7876;DHT22;69649;53.712;9.680;2023-06-19T10:10:05;27.80;48.70
7876;DHT22;69649;53.712;9.680;2023-06-19T10:12:46;27.90;48.40
7876;DHT22;69649;53.712;9.680;2023-06-19T10:15:20;27.90;47.70
7876;DHT22;69649;53.712;9.680;2023-06-19T10:18:03;28.00;47.70
7876;DHT22;69649;53.712;9.680;2023-06-19T10:20:27;28.20;47.50
7876;DHT22;69649;53.712;9.680;2023-06-19T10:23:16;28.20;47.50
7876;DHT22;69649;53.712;9.680;2023-06-19T10:25:45;28.30;47.50
7876;DHT22;69649;53.712;9.680;2023-06-19T10:31:04;28.60;47.70
7876;DHT22;69649;53.712;9.680;2023-06-19T10:33:32;28.70;47.10
7876;DHT22;69649;53.712;9.680;2023-06-19T10:36:00;28.80;47.80
7876;DHT22;69649;53.712;9.680;2023-06-19T10:38:27;28.70;47.50
7876;DHT22;69649;53.712;9.680;2023-06-19T10:40:53;28.60;47.60
7876;DHT22;69649;53.712;9.680;2023-06-19T10:43:23;28.50;47.50
7876;DHT22;69649;53.712;9.680;2023-06-19T10:45:51;28.40;47.80
7876;DHT22;69649;53.712;9.680;2023-06-19T10:51:07;28.30;47.90
7876;DHT22;69649;53.712;9.680;2023-06-19T10:53:34;28.60;47.60
7876;DHT22;69649;53.712;9.680;2023-06-19T10:56:01;28.60;48.00
7876;DHT22;69649;53.712;9.680;2023-06-19T10:58:28;28.70;47.80
7876;DHT22;69649;53.712;9.680;2023-06-19T11:00:54;28.60;47.90
7876;DHT22;69649;53.712;9.680;2023-06-19T11:03:21;28.80;48.00
7876;DHT22;69649;53.712;9.680;2023-06-19T11:05:48;28.90;48.30
7876;DHT22;69649;53.712;9.680;2023-06-19T11:08:19;29.20;48.20
7876;DHT22;69649;53.712;9.680;2023-06-19T11:10:45;29.30;47.90
7876;DHT22;69649;53.712;9.680;2023-06-19T11:13:19;29.30;46.60
7876;DHT22;69649;53.712;9.680;2023-06-19T11:15:45;29.60;47.00
7876;DHT22;69649;53.712;9.680;2023-06-19T11:18:15;29.70;46.30
7876;DHT22;69649;53.712;9.680;2023-06-19T11:20:50;29.70;46.50
7876;DHT22;69649;53.712;9.680;2023-06-19T11:23:26;29.90;46.60
7876;DHT22;69649;53.712;9.680;2023-06-19T11:25:52;29.60;45.00
7876;DHT22;69649;53.712;9.680;2023-06-19T11:28:18;29.70;46.10
7876;DHT22;69649;53.712;9.680;2023-06-19T11:30:46;29.50;45.30
7876;DHT22;69649;53.712;9.680;2023-06-19T11:33:20;29.50;46.50
7876;DHT22;69649;53.712;9.680;2023-06-19T11:35:50;29.70;46.60
7876;DHT22;69649;53.712;9.680;2023-06-19T11:41:09;30.10;45.70
7876;DHT22;69649;53.712;9.680;2023-06-19T11:43:35;29.80;45.50
7876;DHT22;69649;53.712;9.680;2023-06-19T11:46:07;29.50;45.40
7876;DHT22;69649;53.712;9.680;2023-06-19T11:48:38;29.40;46.00
7876;DHT22;69649;53.712;9.680;2023-06-19T11:51:04;29.20;46.00
7876;DHT22;69649;53.712;9.680;2023-06-19T11:53:30;29.10;46.80
7876;DHT22;69649;53.712;9.680;2023-06-19T11:55:56;29.10;45.80
7876;DHT22;69649;53.712;9.680;2023-06-19T11:58:22;28.90;46.30
7876;DHT22;69649;53.712;9.680;2023-06-19T12:00:48;28.90;46.90
7876;DHT22;69649;53.712;9.680;2023-06-19T12:03:14;28.90;46.60
7876;DHT22;69649;53.712;9.680;2023-06-19T12:05:40;28.90;47.10
7876;DHT22;69649;53.712;9.680;2023-06-19T12:08:06;28.90;47.20
7876;DHT22;69649;53.712;9.680;2023-06-19T12:10:33;28.90;47.70
7876;DHT22;69649;53.712;9.680;2023-06-19T12:12:59;28.90;47.00
7876;DHT22;69649;53.712;9.680;2023-06-19T12:15:25;28.70;47.70
7876;DHT22;69649;53.712;9.680;2023-06-19T12:17:51;28.30;48.30
7876;DHT22;69649;53.712;9.680;2023-06-19T12:20:18;28.00;49.60
7876;DHT22;69649;53.712;9.680;2023-06-19T12:22:44;27.80;50.10
7876;DHT22;69649;53.712;9.680;2023-06-19T12:25:10;27.70;49.80
7876;DHT22;69649;53.712;9.680;2023-06-19T12:27:39;27.50;50.20
7876;DHT22;69649;53.712;9.680;2023-06-19T12:30:07;27.30;50.50
7876;DHT22;69649;53.712;9.680;2023-06-19T12:32:33;27.00;50.90
7876;DHT22;69649;53.712;9.680;2023-06-19T12:34:59;26.90;51.20
7876;DHT22;69649;53.712;9.680;2023-06-19T12:37:25;26.80;51.50
7876;DHT22;69649;53.712;9.680;2023-06-19T12:39:51;26.80;52.00
7876;DHT22;69649;53.712;9.680;2023-06-19T12:42:17;27.10;52.00
7876;DHT22;69649;53.712;9.680;2023-06-19T12:44:43;27.40;52.20
7876;DHT22;69649;53.712;9.680;2023-06-19T12:47:13;27.90;52.20
7876;DHT22;69649;53.712;9.680;2023-06-19T12:49:39;28.10;51.50
7876;DHT22;69649;53.712;9.680;2023-06-19T12:52:05;28.30;50.10
7876;DHT22;69649;53.712;9.680;2023-06-19T12:54:32;28.20;50.40
7876;DHT22;69649;53.712;9.680;2023-06-19T12:56:57;27.50;53.00
7876;DHT22;69649;53.712;9.680;2023-06-19T12:59:23;26.80;55.10
7876;DHT22;69649;53.712;9.680;2023-06-19T13:01:49;26.20;56.60
7876;DHT22;69649;53.712;9.680;2023-06-19T13:04:15;25.80;57.90
7876;DHT22;69649;53.712;9.680;2023-06-19T13:06:40;25.40;59.40
7876;DHT22;69649;53.712;9.680;2023-06-19T13:09:06;25.00;60.10
7876;DHT22;69649;53.712;9.680;2023-06-19T13:11:32;25.00;60.50
7876;DHT22;69649;53.712;9.680;2023-06-19T13:14:01;25.00;60.60
7876;DHT22;69649;53.712;9.680;2023-06-19T13:16:27;25.30;60.40
7876;DHT22;69649;53.712;9.680;2023-06-19T13:18:53;25.50;60.60
7876;DHT22;69649;53.712;9.680;2023-06-19T13:21:18;25.60;60.40
7876;DHT22;69649;53.712;9.680;2023-06-19T13:23:44;25.60;60.40
7876;DHT22;69649;53.712;9.680;2023-06-19T13:26:10;25.60;60.70
7876;DHT22;69649;53.712;9.680;2023-06-19T13:28:36;25.80;60.00
7876;DHT22;69649;53.712;9.680;2023-06-19T13:31:03;26.00;60.00
7876;DHT22;69649;53.712;9.680;2023-06-19T13:33:29;26.20;58.70
7876;DHT22;69649;53.712;9.680;2023-06-19T13:35:55;26.30;57.80
7876;DHT22;69649;53.712;9.680;2023-06-19T13:38:21;26.00;58.30
7876;DHT22;69649;53.712;9.680;2023-06-19T13:40:47;25.60;59.10
7876;DHT22;69649;53.712;9.680;2023-06-19T13:43:13;25.60;59.50
7876;DHT22;69649;53.712;9.680;2023-06-19T13:45:40;25.80;58.10
7876;DHT22;69649;53.712;9.680;2023-06-19T13:48:06;26.00;58.60
7876;DHT22;69649;53.712;9.680;2023-06-19T13:50:32;25.80;58.20
7876;DHT22;69649;53.712;9.680;2023-06-19T13:53:00;25.60;58.60
7876;DHT22;69649;53.712;9.680;2023-06-19T13:55:26;25.40;59.30
7876;DHT22;69649;53.712;9.680;2023-06-19T13:57:52;25.20;59.40
7876;DHT22;69649;53.712;9.680;2023-06-19T14:00:18;25.00;59.50
7876;DHT22;69649;53.712;9.680;2023-06-19T14:02:44;24.80;59.60
7876;DHT22;69649;53.712;9.680;2023-06-19T14:05:11;24.80;60.00
7876;DHT22;69649;53.712;9.680;2023-06-19T14:07:39;24.80;60.10
7876;DHT22;69649;53.712;9.680;2023-06-19T14:10:06;24.70;60.50
7876;DHT22;69649;53.712;9.680;2023-06-19T14:12:32;24.70;60.80
7876;DHT22;69649;53.712;9.680;2023-06-19T14:14:57;25.00;61.80
7876;DHT22;69649;53.712;9.680;2023-06-19T14:17:23;25.40;60.50
7876;DHT22;69649;53.712;9.680;2023-06-19T14:19:49;25.80;60.20
7876;DHT22;69649;53.712;9.680;2023-06-19T14:22:16;26.00;59.50
7876;DHT22;69649;53.712;9.680;2023-06-19T14:24:42;25.80;59.10
7876;DHT22;69649;53.712;9.680;2023-06-19T14:27:08;25.60;59.80
7876;DHT22;69649;53.712;9.680;2023-06-19T14:29:34;25.90;59.30
7876;DHT22;69649;53.712;9.680;2023-06-19T14:32:00;25.80;59.10
7876;DHT22;69649;53.712;9.680;2023-06-19T14:34:26;25.80;59.60
7876;DHT22;69649;53.712;9.680;2023-06-19T14:36:52;25.70;59.30
7876;DHT22;69649;53.712;9.680;2023-06-19T14:39:17;25.60;59.70
7876;DHT22;69649;53.712;9.680;2023-06-19T14:41:43;25.30;60.30
7876;DHT22;69649;53.712;9.680;2023-06-19T14:44:09;25.30;60.50
7876;DHT22;69649;53.712;9.680;2023-06-19T14:46:35;25.00;60.20
7876;DHT22;69649;53.712;9.680;2023-06-19T14:49:02;25.10;59.70
7876;DHT22;69649;53.712;9.680;2023-06-19T14:51:28;25.20;59.80
7876;DHT22;69649;53.712;9.680;2023-06-19T14:53:54;25.30;59.80
7876;DHT22;69649;53.712;9.680;2023-06-19T14:56:20;25.30;59.60
7876;DHT22;69649;53.712;9.680;2023-06-19T14:58:46;25.50;59.40
7876;DHT22;69649;53.712;9.680;2023-06-19T15:01:11;25.60;58.90
7876;DHT22;69649;53.712;9.680;2023-06-19T15:03:37;25.60;58.70
7876;DHT22;69649;53.712;9.680;2023-06-19T15:06:03;25.60;58.50
7876;DHT22;69649;53.712;9.680;2023-06-19T15:08:29;25.60;58.50
7876;DHT22;69649;53.712;9.680;2023-06-19T15:10:57;25.50;59.00
7876;DHT22;69649;53.712;9.680;2023-06-19T15:13:23;25.40;58.70
7876;DHT22;69649;53.712;9.680;2023-06-19T15:15:49;25.30;58.80
7876;DHT22;69649;53.712;9.680;2023-06-19T15:18:16;25.30;58.80
7876;DHT22;69649;53.712;9.680;2023-06-19T15:20:42;25.20;58.70
7876;DHT22;69649;53.712;9.680;2023-06-19T15:23:08;25.20;59.20
7876;DHT22;69649;53.712;9.680;2023-06-19T15:25:34;25.20;59.30
7876;DHT22;69649;53.712;9.680;2023-06-19T15:28:00;25.00;59.20
7876;DHT22;69649;53.712;9.680;2023-06-19T15:30:26;25.10;59.10
7876;DHT22;69649;53.712;9.680;2023-06-19T15:32:53;25.30;58.80
7876;DHT22;69649;53.712;9.680;2023-06-19T15:35:18;25.40;58.70
7876;DHT22;69649;53.712;9.680;2023-06-19T15:37:44;25.60;58.30
7876;DHT22;69649;53.712;9.680;2023-06-19T15:40:10;26.20;56.60
7876;DHT22;69649;53.712;9.680;2023-06-19T15:42:38;27.20;55.10
7876;DHT22;69649;53.712;9.680;2023-06-19T15:45:04;27.80;54.70
7876;DHT22;69649;53.712;9.680;2023-06-19T15:47:30;28.40;53.70
7876;DHT22;69649;53.712;9.680;2023-06-19T15:49:58;28.30;53.50
7876;DHT22;69649;53.712;9.680;2023-06-19T15:52:24;28.70;53.60
7876;DHT22;69649;53.712;9.680;2023-06-19T15:54:50;29.00;52.90
7876;DHT22;69649;53.712;9.680;2023-06-19T15:57:15;29.40;52.10
7876;DHT22;69649;53.712;9.680;2023-06-19T15:59:41;29.90;50.70